TRA2611 LFMN-EHAM
Flight info
| Callsign | TRA2611 |
|---|---|
| Flight time | 1h 30m |
| Altitude | 34000 |
| Route | IRMAR DCT KINES DCT VANAS DCT MOBLO DCT UBIMA DCT GILIR DCT PENDU DCT IXILU DCT EPL DCT ROUSY DCT BUB Y28 HELEN |
| Aircraft | A21N/M-SBDE2E3FGHIJ1J5M1P2RWXYZ/LB1D1G1 |
Departure
| Time | 2026-05-05 07:29 |
|---|---|
| Airport | Nice-Côte d'Azur Airport (LFMN) |
Arrival
| Time | 2026-05-05 08:59 |
|---|---|
| Airport | Amsterdam Airport Schiphol (EHAM) |
| Time | Latitude | Longitude | Altitude | Speed | Heading |
|---|---|---|---|---|---|
| 2026-05-05 06:57 | 43.66430 | 7.21407 | 27 ft | 0 kts | 351° |
| 2026-05-05 07:16 | 43.66420 | 7.21410 | 26 ft | 3 kts | 351° |
| 2026-05-05 07:17 | 43.66400 | 7.21414 | 26 ft | 3 kts | 351° |
| 2026-05-05 07:17 | 43.66380 | 7.21418 | 26 ft | 3 kts | 359° |
| 2026-05-05 07:17 | 43.66361 | 7.21415 | 26 ft | 3 kts | 25° |
| 2026-05-05 07:17 | 43.66350 | 7.21403 | 26 ft | 2 kts | 73° |
| 2026-05-05 07:18 | 43.66347 | 7.21388 | 26 ft | 2 kts | 81° |
| 2026-05-05 07:18 | 43.66344 | 7.21364 | 26 ft | 2 kts | 81° |
| 2026-05-05 07:18 | 43.66344 | 7.21360 | 26 ft | 0 kts | 81° |
| 2026-05-05 07:23 | 43.66344 | 7.21373 | 26 ft | 3 kts | 99° |
| 2026-05-05 07:23 | 43.66318 | 7.21380 | 26 ft | 6 kts | 205° |
| 2026-05-05 07:23 | 43.66280 | 7.21335 | 26 ft | 9 kts | 225° |
| 2026-05-05 07:23 | 43.66233 | 7.21272 | 26 ft | 10 kts | 225° |
| 2026-05-05 07:24 | 43.66178 | 7.21196 | 26 ft | 12 kts | 225° |
| 2026-05-05 07:24 | 43.66114 | 7.21109 | 26 ft | 13 kts | 225° |
| 2026-05-05 07:24 | 43.66047 | 7.21017 | 26 ft | 14 kts | 225° |
| 2026-05-05 07:24 | 43.65972 | 7.20915 | 26 ft | 16 kts | 225° |
| 2026-05-05 07:25 | 43.65910 | 7.20840 | 26 ft | 10 kts | 198° |
| 2026-05-05 07:25 | 43.65834 | 7.20855 | 26 ft | 12 kts | 171° |
| 2026-05-05 07:25 | 43.65741 | 7.20875 | 26 ft | 15 kts | 171° |
| 2026-05-05 07:25 | 43.65633 | 7.20900 | 26 ft | 17 kts | 171° |
| 2026-05-05 07:26 | 43.65513 | 7.20926 | 27 ft | 18 kts | 172° |
| 2026-05-05 07:26 | 43.65387 | 7.20954 | 26 ft | 15 kts | 171° |
| 2026-05-05 07:26 | 43.65301 | 7.20888 | 26 ft | 16 kts | 228° |
| 2026-05-05 07:26 | 43.65220 | 7.20777 | 26 ft | 17 kts | 224° |
| 2026-05-05 07:27 | 43.65129 | 7.20651 | 27 ft | 19 kts | 225° |
| 2026-05-05 07:27 | 43.65031 | 7.20516 | 27 ft | 21 kts | 225° |
| 2026-05-05 07:27 | 43.64926 | 7.20372 | 27 ft | 22 kts | 225° |
| 2026-05-05 07:27 | 43.64857 | 7.20277 | 27 ft | 9 kts | 219° |
| 2026-05-05 07:28 | 43.64794 | 7.20283 | 28 ft | 11 kts | 144° |
| 2026-05-05 07:28 | 43.64752 | 7.20349 | 29 ft | 7 kts | 107° |
| 2026-05-05 07:28 | 43.64770 | 7.20383 | 29 ft | 4 kts | 44° |
| 2026-05-05 07:28 | 43.64803 | 7.20429 | 29 ft | 22 kts | 45° |
| 2026-05-05 07:29 | 43.65117 | 7.20854 | 27 ft | 102 kts | 46° |
| 2026-05-05 07:29 | 43.65771 | 7.21763 | 43 ft | 159 kts | 45° |
| 2026-05-05 07:29 | 43.66551 | 7.22871 | 597 ft | 166 kts | 46° |
| 2026-05-05 07:29 | 43.67101 | 7.24290 | 1169 ft | 182 kts | 83° |
| 2026-05-05 07:30 | 43.66710 | 7.26028 | 1602 ft | 206 kts | 127° |
| 2026-05-05 07:30 | 43.64353 | 7.28751 | 3142 ft | 225 kts | 141° |
| 2026-05-05 07:30 | 43.63137 | 7.30129 | 4049 ft | 228 kts | 141° |
| 2026-05-05 07:31 | 43.61840 | 7.31406 | 4933 ft | 231 kts | 156° |
| 2026-05-05 07:31 | 43.60273 | 7.31810 | 5757 ft | 232 kts | 188° |
| 2026-05-05 07:31 | 43.58774 | 7.31057 | 6589 ft | 231 kts | 213° |
| 2026-05-05 07:31 | 43.57428 | 7.29839 | 7449 ft | 232 kts | 216° |
| 2026-05-05 07:32 | 43.56120 | 7.28537 | 8325 ft | 233 kts | 224° |
| 2026-05-05 07:32 | 43.55168 | 7.26750 | 9170 ft | 233 kts | 247° |
| 2026-05-05 07:32 | 43.54889 | 7.24552 | 9987 ft | 238 kts | 272° |
| 2026-05-05 07:32 | 43.55368 | 7.22355 | 10710 ft | 246 kts | 297° |
| 2026-05-05 07:33 | 43.56411 | 7.20441 | 11494 ft | 252 kts | 305° |
| 2026-05-05 07:33 | 43.57543 | 7.18586 | 12254 ft | 255 kts | 304° |
| 2026-05-05 07:33 | 43.58680 | 7.16688 | 13024 ft | 258 kts | 304° |
| 2026-05-05 07:33 | 43.59815 | 7.14758 | 13812 ft | 261 kts | 303° |
| 2026-05-05 07:34 | 43.61088 | 7.12935 | 14485 ft | 270 kts | 319° |
| 2026-05-05 07:34 | 43.62843 | 7.11745 | 14885 ft | 295 kts | 336° |
| 2026-05-05 07:34 | 43.64887 | 7.10873 | 15171 ft | 317 kts | 339° |
| 2026-05-05 07:34 | 43.67071 | 7.09984 | 15440 ft | 338 kts | 339° |
| 2026-05-05 07:35 | 43.69382 | 7.09014 | 15714 ft | 356 kts | 338° |
| 2026-05-05 07:35 | 43.71781 | 7.07980 | 16225 ft | 366 kts | 338° |
| 2026-05-05 07:35 | 43.74227 | 7.06915 | 16896 ft | 370 kts | 338° |
| 2026-05-05 07:35 | 43.76693 | 7.05831 | 17579 ft | 374 kts | 338° |
| 2026-05-05 07:36 | 43.79187 | 7.04730 | 18222 ft | 379 kts | 338° |
| 2026-05-05 07:36 | 43.81709 | 7.03613 | 18813 ft | 383 kts | 338° |
| 2026-05-05 07:36 | 43.84258 | 7.02482 | 19364 ft | 386 kts | 337° |
| 2026-05-05 07:36 | 43.86824 | 7.01344 | 19861 ft | 389 kts | 337° |
| 2026-05-05 07:37 | 43.89412 | 7.00189 | 20421 ft | 392 kts | 337° |
| 2026-05-05 07:37 | 43.91985 | 6.99043 | 20992 ft | 395 kts | 337° |
| 2026-05-05 07:37 | 43.94648 | 6.97854 | 21580 ft | 398 kts | 337° |
| 2026-05-05 07:37 | 43.97258 | 6.96688 | 22149 ft | 401 kts | 337° |
| 2026-05-05 07:38 | 43.99923 | 6.95497 | 22716 ft | 405 kts | 337° |
| 2026-05-05 07:38 | 44.02618 | 6.94294 | 23274 ft | 408 kts | 337° |
| 2026-05-05 07:38 | 44.05335 | 6.93080 | 23762 ft | 412 kts | 338° |
| 2026-05-05 07:38 | 44.08077 | 6.91854 | 24222 ft | 415 kts | 337° |
| 2026-05-05 07:39 | 44.10830 | 6.90619 | 24691 ft | 418 kts | 337° |
| 2026-05-05 07:39 | 44.13620 | 6.89413 | 25152 ft | 422 kts | 340° |
| 2026-05-05 07:39 | 44.16531 | 6.88673 | 25606 ft | 429 kts | 348° |
| 2026-05-05 07:39 | 44.19511 | 6.88210 | 26032 ft | 433 kts | 349° |
| 2026-05-05 07:40 | 44.22513 | 6.87780 | 26464 ft | 435 kts | 350° |
| 2026-05-05 07:40 | 44.25535 | 6.87343 | 26852 ft | 438 kts | 350° |
| 2026-05-05 07:40 | 44.28574 | 6.86893 | 27226 ft | 440 kts | 350° |
| 2026-05-05 07:40 | 44.31633 | 6.86432 | 27619 ft | 443 kts | 349° |
| 2026-05-05 07:41 | 44.34700 | 6.85966 | 27999 ft | 445 kts | 349° |
| 2026-05-05 07:41 | 44.37796 | 6.85496 | 28371 ft | 448 kts | 349° |
| 2026-05-05 07:41 | 44.40903 | 6.85024 | 28720 ft | 451 kts | 350° |
| 2026-05-05 07:41 | 44.44033 | 6.84549 | 29065 ft | 454 kts | 350° |
| 2026-05-05 07:42 | 44.47175 | 6.84071 | 29415 ft | 457 kts | 350° |
| 2026-05-05 07:42 | 44.50351 | 6.83584 | 29750 ft | 459 kts | 350° |
| 2026-05-05 07:42 | 44.53538 | 6.83096 | 30074 ft | 462 kts | 350° |
| 2026-05-05 07:42 | 44.56736 | 6.82609 | 30404 ft | 463 kts | 350° |
| 2026-05-05 07:43 | 44.59940 | 6.82125 | 30806 ft | 462 kts | 350° |
| 2026-05-05 07:43 | 44.63135 | 6.81638 | 31187 ft | 462 kts | 349° |
| 2026-05-05 07:43 | 44.66331 | 6.81146 | 31575 ft | 461 kts | 349° |
| 2026-05-05 07:43 | 44.69514 | 6.80659 | 31959 ft | 460 kts | 349° |
| 2026-05-05 07:44 | 44.72694 | 6.80170 | 32329 ft | 459 kts | 349° |
| 2026-05-05 07:44 | 44.75867 | 6.79684 | 32676 ft | 458 kts | 349° |
| 2026-05-05 07:44 | 44.79033 | 6.79201 | 33035 ft | 458 kts | 349° |
| 2026-05-05 07:44 | 44.82220 | 6.78896 | 33360 ft | 460 kts | 353° |
| 2026-05-05 07:45 | 44.85417 | 6.78680 | 33618 ft | 460 kts | 353° |
| 2026-05-05 07:45 | 44.88617 | 6.78472 | 33902 ft | 460 kts | 353° |
| 2026-05-05 07:45 | 44.91801 | 6.78265 | 34012 ft | 456 kts | 353° |
| 2026-05-05 07:45 | 44.94957 | 6.78060 | 34001 ft | 453 kts | 353° |
| 2026-05-05 07:46 | 45.01258 | 6.77646 | 33994 ft | 454 kts | 353° |
| 2026-05-05 07:46 | 45.07526 | 6.77231 | 33993 ft | 454 kts | 353° |
| 2026-05-05 07:47 | 45.13833 | 6.76813 | 33974 ft | 454 kts | 353° |
| 2026-05-05 07:47 | 45.20136 | 6.76395 | 33966 ft | 454 kts | 354° |
| 2026-05-05 07:48 | 45.26461 | 6.75975 | 33948 ft | 455 kts | 354° |
| 2026-05-05 07:48 | 45.32784 | 6.75551 | 33942 ft | 455 kts | 354° |
| 2026-05-05 07:49 | 45.39105 | 6.75124 | 33944 ft | 455 kts | 354° |
| 2026-05-05 07:49 | 45.45432 | 6.74705 | 33916 ft | 454 kts | 354° |
| 2026-05-05 07:50 | 45.51754 | 6.74275 | 33953 ft | 456 kts | 354° |
| 2026-05-05 07:50 | 45.58077 | 6.73840 | 33939 ft | 454 kts | 355° |
| 2026-05-05 07:51 | 45.64414 | 6.73406 | 33935 ft | 456 kts | 355° |
| 2026-05-05 07:51 | 45.70743 | 6.72974 | 33928 ft | 455 kts | 355° |
| 2026-05-05 07:52 | 45.77070 | 6.72536 | 33922 ft | 455 kts | 355° |
| 2026-05-05 07:52 | 45.83409 | 6.72100 | 33920 ft | 456 kts | 355° |
| 2026-05-05 07:53 | 45.89744 | 6.71673 | 33923 ft | 456 kts | 355° |
| 2026-05-05 07:53 | 45.96098 | 6.71242 | 33933 ft | 457 kts | 355° |
| 2026-05-05 07:54 | 46.02453 | 6.70808 | 33927 ft | 457 kts | 355° |
| 2026-05-05 07:54 | 46.08813 | 6.70374 | 33922 ft | 457 kts | 355° |
| 2026-05-05 07:55 | 46.15018 | 6.69032 | 33916 ft | 453 kts | 340° |
| 2026-05-05 07:55 | 46.20992 | 6.66127 | 33920 ft | 455 kts | 338° |
| 2026-05-05 07:56 | 46.26996 | 6.63154 | 33916 ft | 456 kts | 339° |
| 2026-05-05 07:56 | 46.33007 | 6.60219 | 33919 ft | 456 kts | 339° |
| 2026-05-05 07:57 | 46.39020 | 6.57274 | 33889 ft | 457 kts | 339° |
| 2026-05-05 07:57 | 46.45078 | 6.54297 | 33910 ft | 460 kts | 339° |
| 2026-05-05 07:58 | 46.51138 | 6.51325 | 33923 ft | 460 kts | 339° |
| 2026-05-05 07:58 | 46.57206 | 6.48350 | 33914 ft | 460 kts | 339° |
| 2026-05-05 07:59 | 46.63255 | 6.45374 | 33919 ft | 457 kts | 339° |
| 2026-05-05 07:59 | 46.69278 | 6.42396 | 33909 ft | 457 kts | 339° |
| 2026-05-05 08:00 | 46.75302 | 6.39414 | 33908 ft | 457 kts | 339° |
| 2026-05-05 08:00 | 46.81325 | 6.36423 | 33904 ft | 460 kts | 338° |
| 2026-05-05 08:01 | 46.87398 | 6.33397 | 33898 ft | 461 kts | 338° |
| 2026-05-05 08:01 | 46.93464 | 6.30368 | 33895 ft | 461 kts | 338° |
| 2026-05-05 08:02 | 46.99491 | 6.27351 | 33896 ft | 461 kts | 338° |
| 2026-05-05 08:02 | 47.05565 | 6.24289 | 33883 ft | 462 kts | 336° |
| 2026-05-05 08:03 | 47.11365 | 6.20335 | 33882 ft | 460 kts | 330° |
| 2026-05-05 08:03 | 47.17090 | 6.16176 | 33897 ft | 456 kts | 330° |
| 2026-05-05 08:04 | 47.22788 | 6.12047 | 33884 ft | 457 kts | 330° |
| 2026-05-05 08:04 | 47.28494 | 6.07919 | 33881 ft | 457 kts | 330° |
| 2026-05-05 08:05 | 47.34318 | 6.04120 | 33873 ft | 461 kts | 342° |
| 2026-05-05 08:05 | 47.37484 | 6.03290 | 33876 ft | 464 kts | 356° |
| 2026-05-05 08:05 | 47.40714 | 6.03252 | 33887 ft | 465 kts | 0° |
| 2026-05-05 08:06 | 47.47190 | 6.03499 | 33883 ft | 466 kts | 0° |
| 2026-05-05 08:06 | 47.53671 | 6.03682 | 33883 ft | 466 kts | 0° |
| 2026-05-05 08:07 | 47.60151 | 6.03827 | 33888 ft | 466 kts | 0° |
| 2026-05-05 08:07 | 47.66636 | 6.03971 | 33885 ft | 467 kts | 360° |
| 2026-05-05 08:08 | 47.73136 | 6.04115 | 33891 ft | 467 kts | 360° |
| 2026-05-05 08:08 | 47.79632 | 6.04295 | 33862 ft | 467 kts | 0° |
| 2026-05-05 08:09 | 47.86135 | 6.04506 | 33878 ft | 467 kts | 0° |
| 2026-05-05 08:09 | 47.91539 | 6.04675 | 33883 ft | 467 kts | 0° |
| 2026-05-05 08:10 | 47.98036 | 6.04878 | 33886 ft | 467 kts | 0° |
| 2026-05-05 08:10 | 48.04533 | 6.05080 | 33889 ft | 467 kts | 0° |
| 2026-05-05 08:11 | 48.11036 | 6.05283 | 33882 ft | 467 kts | 360° |
| 2026-05-05 08:11 | 48.17536 | 6.05488 | 33876 ft | 467 kts | 360° |
| 2026-05-05 08:12 | 48.24039 | 6.05695 | 33876 ft | 467 kts | 360° |
| 2026-05-05 08:12 | 48.30544 | 6.05895 | 33876 ft | 467 kts | 359° |
| 2026-05-05 08:13 | 48.37036 | 6.06161 | 33878 ft | 467 kts | 0° |
| 2026-05-05 08:13 | 48.43535 | 6.06483 | 33873 ft | 467 kts | 360° |
| 2026-05-05 08:14 | 48.50037 | 6.06793 | 33883 ft | 467 kts | 359° |
| 2026-05-05 08:14 | 48.56524 | 6.07099 | 33878 ft | 466 kts | 359° |
| 2026-05-05 08:15 | 48.63003 | 6.07410 | 33879 ft | 465 kts | 0° |
| 2026-05-05 08:15 | 48.69474 | 6.07716 | 33876 ft | 465 kts | 0° |
| 2026-05-05 08:16 | 48.75908 | 6.08019 | 33875 ft | 465 kts | 0° |
| 2026-05-05 08:16 | 48.82375 | 6.08326 | 33877 ft | 465 kts | 0° |
| 2026-05-05 08:17 | 48.88845 | 6.08639 | 33878 ft | 465 kts | 0° |
| 2026-05-05 08:17 | 48.95316 | 6.08953 | 33876 ft | 465 kts | 359° |
| 2026-05-05 08:18 | 49.01786 | 6.09263 | 33872 ft | 465 kts | 359° |
| 2026-05-05 08:18 | 49.08252 | 6.09569 | 33876 ft | 465 kts | 359° |
| 2026-05-05 08:19 | 49.14715 | 6.09881 | 33883 ft | 465 kts | 359° |
| 2026-05-05 08:19 | 49.21165 | 6.10198 | 33879 ft | 463 kts | 359° |
| 2026-05-05 08:20 | 49.27609 | 6.10509 | 33868 ft | 464 kts | 359° |
| 2026-05-05 08:20 | 49.34064 | 6.10822 | 33870 ft | 464 kts | 359° |
| 2026-05-05 08:21 | 49.40498 | 6.11138 | 33870 ft | 461 kts | 359° |
| 2026-05-05 08:21 | 49.46848 | 6.10615 | 33869 ft | 453 kts | 341° |
| 2026-05-05 08:22 | 49.49784 | 6.09039 | 33870 ft | 444 kts | 328° |
| 2026-05-05 08:22 | 49.52405 | 6.06620 | 33880 ft | 437 kts | 319° |
| 2026-05-05 08:22 | 49.57352 | 6.01198 | 33872 ft | 436 kts | 318° |
| 2026-05-05 08:23 | 49.62301 | 5.95815 | 33874 ft | 433 kts | 318° |
| 2026-05-05 08:23 | 49.67253 | 5.90488 | 33877 ft | 434 kts | 319° |
| 2026-05-05 08:24 | 49.72169 | 5.85189 | 33878 ft | 437 kts | 319° |
| 2026-05-05 08:24 | 49.77195 | 5.79762 | 33872 ft | 442 kts | 319° |
| 2026-05-05 08:25 | 49.82240 | 5.74311 | 33876 ft | 442 kts | 319° |
| 2026-05-05 08:25 | 49.87255 | 5.68866 | 33872 ft | 438 kts | 319° |
| 2026-05-05 08:26 | 49.92243 | 5.63420 | 33873 ft | 439 kts | 319° |
| 2026-05-05 08:26 | 49.97237 | 5.57975 | 33870 ft | 439 kts | 319° |
| 2026-05-05 08:27 | 50.02222 | 5.52512 | 33865 ft | 439 kts | 319° |
| 2026-05-05 08:27 | 50.07206 | 5.47044 | 33876 ft | 439 kts | 318° |
| 2026-05-05 08:28 | 50.12221 | 5.41528 | 33870 ft | 442 kts | 319° |
| 2026-05-05 08:28 | 50.17240 | 5.35992 | 33866 ft | 442 kts | 318° |
| 2026-05-05 08:29 | 50.22257 | 5.30444 | 33872 ft | 442 kts | 318° |
| 2026-05-05 08:30 | 50.29837 | 5.22020 | 33883 ft | 453 kts | 318° |
| 2026-05-05 08:30 | 50.34953 | 5.16336 | 33892 ft | 450 kts | 318° |
| 2026-05-05 08:31 | 50.40058 | 5.10653 | 33883 ft | 449 kts | 318° |
| 2026-05-05 08:31 | 50.45140 | 5.04951 | 33893 ft | 449 kts | 319° |
| 2026-05-05 08:32 | 50.50229 | 4.99241 | 33893 ft | 449 kts | 319° |
| 2026-05-05 08:32 | 50.55306 | 4.93526 | 33900 ft | 448 kts | 319° |
| 2026-05-05 08:33 | 50.60353 | 4.87828 | 33892 ft | 446 kts | 319° |
| 2026-05-05 08:33 | 50.62852 | 4.85008 | 33734 ft | 439 kts | 319° |
| 2026-05-05 08:33 | 50.65330 | 4.82211 | 33418 ft | 434 kts | 319° |
| 2026-05-05 08:33 | 50.67768 | 4.79452 | 33129 ft | 430 kts | 319° |
| 2026-05-05 08:34 | 50.70187 | 4.76709 | 32847 ft | 427 kts | 319° |
| 2026-05-05 08:34 | 50.72592 | 4.73973 | 32578 ft | 425 kts | 319° |
| 2026-05-05 08:34 | 50.74980 | 4.71252 | 32312 ft | 422 kts | 319° |
| 2026-05-05 08:34 | 50.77328 | 4.68570 | 32058 ft | 420 kts | 319° |
| 2026-05-05 08:35 | 50.79683 | 4.65883 | 31781 ft | 415 kts | 320° |
| 2026-05-05 08:35 | 50.82015 | 4.63222 | 31310 ft | 412 kts | 320° |
| 2026-05-05 08:35 | 50.84338 | 4.60563 | 30783 ft | 411 kts | 320° |
| 2026-05-05 08:35 | 50.86677 | 4.57871 | 30269 ft | 410 kts | 320° |
| 2026-05-05 08:36 | 50.88950 | 4.55173 | 29706 ft | 407 kts | 316° |
| 2026-05-05 08:36 | 50.90896 | 4.51984 | 29115 ft | 400 kts | 303° |
| 2026-05-05 08:36 | 50.92403 | 4.48373 | 28579 ft | 396 kts | 298° |
| 2026-05-05 08:36 | 50.93817 | 4.44660 | 28063 ft | 393 kts | 298° |
| 2026-05-05 08:37 | 50.95218 | 4.40959 | 27591 ft | 390 kts | 298° |
| 2026-05-05 08:37 | 50.96616 | 4.37293 | 27090 ft | 388 kts | 298° |
| 2026-05-05 08:37 | 50.98015 | 4.33647 | 26560 ft | 386 kts | 299° |
| 2026-05-05 08:37 | 50.99636 | 4.30248 | 26007 ft | 386 kts | 308° |
| 2026-05-05 08:38 | 51.01412 | 4.27076 | 25480 ft | 383 kts | 309° |
| 2026-05-05 08:38 | 51.03184 | 4.23948 | 24991 ft | 379 kts | 309° |
| 2026-05-05 08:38 | 51.04933 | 4.20828 | 24500 ft | 376 kts | 309° |
| 2026-05-05 08:38 | 51.06658 | 4.17718 | 23998 ft | 374 kts | 309° |
| 2026-05-05 08:39 | 51.08367 | 4.14621 | 23504 ft | 372 kts | 309° |
| 2026-05-05 08:39 | 51.10062 | 4.11537 | 22966 ft | 368 kts | 309° |
| 2026-05-05 08:39 | 51.11746 | 4.08497 | 22459 ft | 364 kts | 310° |
| 2026-05-05 08:39 | 51.13402 | 4.05490 | 21955 ft | 360 kts | 309° |
| 2026-05-05 08:40 | 51.15047 | 4.02494 | 21457 ft | 358 kts | 309° |
| 2026-05-05 08:40 | 51.16681 | 3.99519 | 20985 ft | 357 kts | 310° |
| 2026-05-05 08:40 | 51.18315 | 3.96536 | 20528 ft | 356 kts | 310° |
| 2026-05-05 08:40 | 51.19938 | 3.93565 | 20072 ft | 355 kts | 310° |
| 2026-05-05 08:41 | 51.21630 | 3.90711 | 19623 ft | 354 kts | 319° |
| 2026-05-05 08:41 | 51.23725 | 3.88694 | 19185 ft | 353 kts | 340° |
| 2026-05-05 08:41 | 51.26118 | 3.88005 | 18756 ft | 350 kts | 2° |
| 2026-05-05 08:41 | 51.28510 | 3.88601 | 18351 ft | 348 kts | 15° |
| 2026-05-05 08:42 | 51.30853 | 3.89581 | 17902 ft | 348 kts | 16° |
| 2026-05-05 08:42 | 51.33198 | 3.90573 | 17447 ft | 348 kts | 16° |
| 2026-05-05 08:42 | 51.35545 | 3.91530 | 17020 ft | 348 kts | 15° |
| 2026-05-05 08:42 | 51.37889 | 3.92457 | 16594 ft | 345 kts | 15° |
| 2026-05-05 08:43 | 51.40199 | 3.93359 | 16166 ft | 339 kts | 15° |
| 2026-05-05 08:43 | 51.42475 | 3.94239 | 15762 ft | 333 kts | 14° |
| 2026-05-05 08:43 | 51.44707 | 3.95100 | 15385 ft | 327 kts | 14° |
| 2026-05-05 08:43 | 51.46905 | 3.95948 | 15021 ft | 321 kts | 14° |
| 2026-05-05 08:44 | 51.49062 | 3.96783 | 14647 ft | 316 kts | 14° |
| 2026-05-05 08:44 | 51.51185 | 3.97605 | 14266 ft | 312 kts | 14° |
| 2026-05-05 08:44 | 51.53281 | 3.98416 | 13896 ft | 308 kts | 14° |
| 2026-05-05 08:44 | 51.55352 | 3.99219 | 13523 ft | 305 kts | 14° |
| 2026-05-05 08:45 | 51.57414 | 4.00020 | 13149 ft | 304 kts | 14° |
| 2026-05-05 08:45 | 51.59463 | 4.00817 | 12800 ft | 303 kts | 14° |
| 2026-05-05 08:45 | 51.61506 | 4.01609 | 12454 ft | 301 kts | 13° |
| 2026-05-05 08:45 | 51.63540 | 4.02399 | 12095 ft | 301 kts | 13° |
| 2026-05-05 08:46 | 51.65574 | 4.03190 | 11737 ft | 300 kts | 13° |
| 2026-05-05 08:46 | 51.67598 | 4.03978 | 11384 ft | 299 kts | 13° |
| 2026-05-05 08:46 | 51.69623 | 4.04765 | 11043 ft | 299 kts | 13° |
| 2026-05-05 08:46 | 51.71611 | 4.05539 | 10712 ft | 297 kts | 13° |
| 2026-05-05 08:47 | 51.73616 | 4.06323 | 10377 ft | 297 kts | 13° |
| 2026-05-05 08:47 | 51.75614 | 4.07109 | 10082 ft | 292 kts | 13° |
| 2026-05-05 08:47 | 51.77562 | 4.07875 | 9796 ft | 285 kts | 13° |
| 2026-05-05 08:47 | 51.79482 | 4.08628 | 9444 ft | 284 kts | 13° |
| 2026-05-05 08:48 | 51.81403 | 4.09385 | 9098 ft | 283 kts | 13° |
| 2026-05-05 08:48 | 51.83303 | 4.10133 | 8761 ft | 280 kts | 13° |
| 2026-05-05 08:48 | 51.85192 | 4.10875 | 8421 ft | 279 kts | 13° |
| 2026-05-05 08:48 | 51.87077 | 4.11616 | 8073 ft | 279 kts | 13° |
| 2026-05-05 08:49 | 51.88961 | 4.12356 | 7749 ft | 278 kts | 13° |
| 2026-05-05 08:49 | 51.90830 | 4.13162 | 7425 ft | 278 kts | 19° |
| 2026-05-05 08:49 | 51.92483 | 4.14712 | 7090 ft | 275 kts | 37° |
| 2026-05-05 08:49 | 51.93951 | 4.16670 | 6796 ft | 272 kts | 39° |
| 2026-05-05 08:50 | 51.95397 | 4.18638 | 6450 ft | 271 kts | 39° |
| 2026-05-05 08:50 | 51.96851 | 4.20598 | 6091 ft | 272 kts | 39° |
| 2026-05-05 08:50 | 51.98310 | 4.22549 | 5755 ft | 272 kts | 38° |
| 2026-05-05 08:50 | 51.99770 | 4.24495 | 5409 ft | 270 kts | 38° |
| 2026-05-05 08:51 | 52.01210 | 4.26412 | 5070 ft | 266 kts | 38° |
| 2026-05-05 08:51 | 52.02637 | 4.28304 | 4747 ft | 264 kts | 38° |
| 2026-05-05 08:51 | 52.04051 | 4.30177 | 4442 ft | 260 kts | 38° |
| 2026-05-05 08:51 | 52.05445 | 4.32029 | 4233 ft | 257 kts | 38° |
| 2026-05-05 08:52 | 52.06826 | 4.33866 | 4032 ft | 254 kts | 38° |
| 2026-05-05 08:52 | 52.08178 | 4.35668 | 3695 ft | 251 kts | 38° |
| 2026-05-05 08:52 | 52.09538 | 4.37479 | 3239 ft | 253 kts | 39° |
| 2026-05-05 08:52 | 52.10884 | 4.39272 | 2949 ft | 247 kts | 39° |
| 2026-05-05 08:53 | 52.12198 | 4.41024 | 2575 ft | 244 kts | 40° |
| 2026-05-05 08:53 | 52.13512 | 4.42770 | 2173 ft | 243 kts | 40° |
| 2026-05-05 08:53 | 52.14800 | 4.44479 | 2000 ft | 233 kts | 40° |
| 2026-05-05 08:53 | 52.16017 | 4.46103 | 1970 ft | 218 kts | 40° |
| 2026-05-05 08:54 | 52.17149 | 4.47610 | 1959 ft | 202 kts | 39° |
| 2026-05-05 08:54 | 52.18183 | 4.48993 | 1955 ft | 186 kts | 40° |
| 2026-05-05 08:54 | 52.19172 | 4.50314 | 1976 ft | 181 kts | 39° |
| 2026-05-05 08:54 | 52.20162 | 4.51639 | 1992 ft | 185 kts | 41° |
| 2026-05-05 08:55 | 52.21009 | 4.53206 | 2007 ft | 184 kts | 53° |
| 2026-05-05 08:55 | 52.21690 | 4.54979 | 2032 ft | 186 kts | 57° |
| 2026-05-05 08:55 | 52.22361 | 4.56735 | 2069 ft | 176 kts | 56° |
| 2026-05-05 08:55 | 52.22990 | 4.58369 | 2034 ft | 167 kts | 57° |
| 2026-05-05 08:56 | 52.23609 | 4.59976 | 1956 ft | 167 kts | 56° |
| 2026-05-05 08:56 | 52.24203 | 4.61516 | 1776 ft | 153 kts | 56° |
| 2026-05-05 08:56 | 52.24752 | 4.62940 | 1581 ft | 145 kts | 56° |
| 2026-05-05 08:56 | 52.25270 | 4.64285 | 1391 ft | 134 kts | 56° |
| 2026-05-05 08:57 | 52.25732 | 4.65484 | 1189 ft | 120 kts | 57° |
| 2026-05-05 08:57 | 52.26032 | 4.66265 | 1050 ft | 121 kts | 57° |
| 2026-05-05 08:57 | 52.26459 | 4.67394 | 947 ft | 118 kts | 55° |
| 2026-05-05 08:57 | 52.26903 | 4.68542 | 758 ft | 119 kts | 55° |
| 2026-05-05 08:58 | 52.27354 | 4.69692 | 585 ft | 121 kts | 54° |
| 2026-05-05 08:58 | 52.27802 | 4.70842 | 453 ft | 120 kts | 55° |
| 2026-05-05 08:58 | 52.28251 | 4.72013 | 299 ft | 124 kts | 56° |
| 2026-05-05 08:58 | 52.28709 | 4.73211 | 111 ft | 124 kts | 55° |
| 2026-05-05 08:59 | 52.29170 | 4.74396 | 6 ft | 116 kts | 57° |
| 2026-05-05 08:59 | 52.29520 | 4.75303 | 3 ft | 79 kts | 57° |
| 2026-05-05 08:59 | 52.29767 | 4.75952 | 2 ft | 51 kts | 60° |
| 2026-05-05 08:59 | 52.29919 | 4.76346 | 2 ft | 28 kts | 58° |
| 2026-05-05 09:00 | 52.30056 | 4.76567 | 4 ft | 27 kts | 25° |
| 2026-05-05 09:00 | 52.30185 | 4.76674 | 4 ft | 18 kts | 28° |
| 2026-05-05 09:00 | 52.30296 | 4.76781 | 4 ft | 19 kts | 51° |
| 2026-05-05 09:00 | 52.30368 | 4.76970 | 4 ft | 20 kts | 57° |
| 2026-05-05 09:01 | 52.30438 | 4.77042 | 4 ft | 12 kts | 343° |
| 2026-05-05 09:01 | 52.30516 | 4.76958 | 4 ft | 14 kts | 327° |
| 2026-05-05 09:01 | 52.30597 | 4.76864 | 4 ft | 14 kts | 301° |
| 2026-05-05 09:01 | 52.30647 | 4.76758 | 4 ft | 12 kts | 330° |
| 2026-05-05 09:02 | 52.30722 | 4.76685 | 4 ft | 8 kts | 326° |
| 2026-05-05 09:02 | 52.30763 | 4.76649 | 4 ft | 7 kts | 346° |
| 2026-05-05 09:02 | 52.30801 | 4.76634 | 4 ft | 3 kts | 344° |
| 2026-05-05 09:02 | 52.30805 | 4.76632 | 4 ft | 0 kts | 344° |